ADDS METAR Data INFO
IDs: Format: Raw Decoded Include TAF

Data at: 2011 UTC 19 Oct 2017

KPMU 191955Z AUTO 00000KT 10SM CLR 24/10 A3021 RMK AO2 T02420099
KPMU 191935Z AUTO 00000KT 10SM CLR 25/10 A3021 RMK AO2 T02460103
KPMU 191915Z AUTO 00000KT 10SM CLR 25/10 A3022 RMK AO2 T02460097
KPMU 191855Z AUTO 00000KT 10SM CLR 25/10 A3023 RMK AO2 T02470095
KPMU 191835Z AUTO 00000KT 10SM CLR 24/08 A3024 RMK AO2 T02390084
KPMU 191815Z AUTO 00000KT 10SM CLR 23/09 A3025 RMK AO2 T02290086
KPMU 191755Z AUTO 15003KT 10SM CLR 23/09 A3026 RMK AO2 T02310094 10239 20045
KPMU 191735Z AUTO 00000KT 10SM CLR 23/10 A3027 RMK AO2 T02290098
KPMU 191715Z AUTO 00000KT 10SM CLR 22/10 A3027 RMK AO2 T02200101
KPMU 191655Z AUTO 00000KT 10SM CLR 22/10 A3028 RMK AO2 T02190099
KPMU 191635Z AUTO 00000KT 10SM CLR 22/11 A3028 RMK AO2 T02150107
KPMU 191615Z AUTO 20003KT 10SM CLR 21/11 A3029 RMK AO2 T02070105
KPMU 191555Z AUTO 00000KT 10SM CLR 20/11 A3028 RMK AO2 T01990107
KPMU 191535Z AUTO 00000KT 10SM CLR 19/11 A3029 RMK AO2 T01910107
KPMU 191515Z AUTO 00000KT 10SM CLR 18/11 A3029 RMK AO2 T01810112
KPMU 191455Z AUTO 00000KT 10SM CLR 16/11 A3029 RMK AO2 T01580111
KPMU 191435Z AUTO 00000KT 10SM CLR 14/11 A3029 RMK AO2 T01380112
KPMU 191415Z AUTO 00000KT 10SM CLR 12/11 A3029 RMK AO2 T01200109
KPMU 191355Z AUTO 00000KT 10SM CLR 11/10 A3028 RMK AO2 T01050098
KPMU 191335Z AUTO 00000KT 10SM CLR 09/08 A3028 RMK AO2 T00890082
KPMU 191315Z AUTO 00000KT 10SM CLR 08/07 A3027 RMK AO2 T00750067
KPMU 191255Z AUTO 00000KT 10SM CLR 05/05 A3027 RMK AO2 T00540047
KPMU 191235Z AUTO 00000KT 10SM CLR 05/04 A3027 RMK AO2 T00470041
KPMU 191215Z AUTO 00000KT 7SM CLR 05/04 A3026 RMK AO2 T00450039
KPMU 191155Z AUTO 00000KT 7SM CLR 05/04 A3026 RMK AO2 T00450039 10070 20042
KPMU 191135Z AUTO 00000KT 4SM BR CLR 05/04 A3025 RMK AO2 T00470041
KPMU 191115Z AUTO 00000KT 7SM CLR 05/04 A3025 RMK AO2 T00460040
KPMU 191055Z AUTO 00000KT 7SM CLR 04/04 A3024 RMK AO2 T00430037
KPMU 191035Z AUTO 00000KT 5SM BR CLR 04/04 A3023 RMK AO2 T00430037
KPMU 191015Z AUTO 00000KT 7SM CLR 05/04 A3022 RMK AO2 T00460040
KPMU 190955Z AUTO 00000KT 5SM BR CLR 05/04 A3022 RMK AO2 T00460040
KPMU 190935Z AUTO 00000KT 7SM CLR 05/05 A3022 RMK AO2 T00530047
KPMU 190915Z AUTO 00000KT 10SM CLR 05/05 A3021 RMK AO2 T00540047
KPMU 190855Z AUTO 00000KT 10SM CLR 05/04 A3022 RMK AO2 T00510044
KPMU 190835Z AUTO 00000KT 5SM BR CLR 06/05 A3022 RMK AO2 T00550047
KPMU 190815Z AUTO 00000KT 2 1/2SM BR CLR 05/05 A3022 RMK AO2 T00530047
KPMU 190755Z AUTO 00000KT 7SM CLR 06/06 A3021 RMK AO2 T00610055
KPMU 190735Z AUTO 00000KT 10SM CLR 06/05 A3021 RMK AO2 T00570050
KPMU 190715Z AUTO 00000KT 10SM CLR 06/05 A3021 RMK AO2 T00610053
KPMU 190655Z AUTO 00000KT 7SM CLR 06/06 A3021 RMK AO2 T00640057
KPMU 190635Z AUTO 00000KT 7SM CLR 07/06 A3021 RMK AO2 T00660058
KPMU 190615Z AUTO 00000KT 7SM CLR 07/06 A3021 RMK AO2 T00650058
KPMU 190555Z AUTO 00000KT 7SM CLR 07/06 A3021 RMK AO2 T00670059 10142 20065 402420041
KPMU 190535Z AUTO 00000KT 7SM CLR 07/06 A3021 RMK AO2 T00720064
KPMU 190515Z AUTO 00000KT 10SM CLR 07/06 A3021 RMK AO2 T00730064
KPMU 190455Z AUTO 00000KT 7SM CLR 08/07 A3021 RMK AO2 T00760067
KPMU 190435Z AUTO 00000KT 10SM CLR 08/07 A3021 RMK AO2 T00790070
KPMU 190415Z AUTO 00000KT 10SM CLR 08/07 A3022 RMK AO2 T00780068
KPMU 190355Z AUTO 00000KT 10SM CLR 09/08 A3022 RMK AO2 T00870078
KPMU 190335Z AUTO 00000KT 10SM CLR 08/08 A3022 RMK AO2 T00840075
KPMU 190315Z AUTO 00000KT 10SM CLR 09/08 A3022 RMK AO2 T00900081
KPMU 190255Z AUTO 00000KT 10SM CLR 09/08 A3022 RMK AO2 T00890079
KPMU 190235Z AUTO 00000KT 10SM CLR 09/08 A3022 RMK AO2 T00880077
KPMU 190215Z AUTO 00000KT 10SM CLR 10/09 A3021 RMK AO2 T00970085
KPMU 190155Z AUTO 00000KT 10SM CLR 11/09 A3021 RMK AO2 T01050092
KPMU 190135Z AUTO 00000KT 10SM CLR 11/10 A3021 RMK AO2 T01080095
KPMU 190115Z AUTO 00000KT 10SM CLR 11/10 A3021 RMK AO2 T01130099
KPMU 190055Z AUTO 00000KT 10SM CLR 12/10 A3021 RMK AO2 T01200102
KPMU 190035Z AUTO 00000KT 10SM CLR 12/10 A3022 RMK AO2 T01210101
KPMU 190015Z AUTO 00000KT 10SM CLR 13/10 A3021 RMK AO2 T01300100
KPMU 182355Z AUTO 00000KT 10SM CLR 14/10 A3021 RMK AO2 T01440103 10242 20144
KPMU 182335Z AUTO 00000KT 10SM CLR 16/11 A3020 RMK AO2 T01600105
KPMU 182315Z AUTO 00000KT 10SM CLR 19/10 A3019 RMK AO2 T01890104
KPMU 182255Z AUTO 00000KT 10SM CLR 22/07 A3019 RMK AO2 T02190065
KPMU 182235Z AUTO 00000KT 10SM CLR 23/06 A3019 RMK AO2 T02270060
KPMU 182215Z AUTO 00000KT 10SM CLR 23/06 A3019 RMK AO2 T02320060
KPMU 182155Z AUTO 12003KT 10SM CLR 24/05 A3019 RMK AO2 T02350051
KPMU 182135Z AUTO 15004KT 10SM CLR 24/06 A3019 RMK AO2 T02400059
KPMU 182115Z AUTO 16005KT 10SM CLR 24/06 A3019 RMK AO2 T02410058
KPMU 182055Z AUTO 15005KT 10SM CLR 24/06 A3019 RMK AO2 T02390062
KPMU 182035Z AUTO 14004KT 10SM CLR 24/06 A3019 RMK AO2 T02400059
KPMU 182015Z AUTO 11004KT 10SM CLR 24/06 A3019 RMK AO2 T02390058
KPMU 181955Z AUTO 17005KT 10SM CLR 24/06 A3020 RMK AO2 T02350058
KPMU 181935Z AUTO 15005KT 10SM CLR 24/06 A3021 RMK AO2 T02350057
KPMU 181915Z AUTO 17007KT 120V210 10SM CLR 23/05 A3021 RMK AO2 T02290052
KPMU 181855Z AUTO 00000KT 10SM CLR 23/06 A3022 RMK AO2 T02260057
KPMU 181835Z AUTO 15004KT 10SM CLR 23/05 A3024 RMK AO2 T02270054
KPMU 181815Z AUTO 16007KT 10SM CLR 22/05 A3025 RMK AO2 T02240054
KPMU 181755Z AUTO 19006KT 10SM CLR 22/06 A3026 RMK AO2 T02200057 10221 20045
KPMU 181735Z AUTO 17007KT 10SM CLR 22/06 A3027 RMK AO2 T02170059
KPMU 181715Z AUTO 17005KT 10SM CLR 21/06 A3027 RMK AO2 T02130059
KPMU 181655Z AUTO 17005KT 10SM CLR 21/05 A3028 RMK AO2 T02100054
KPMU 181635Z AUTO 18008KT 10SM CLR 20/07 A3029 RMK AO2 T02040070
KPMU 181615Z AUTO 18006KT 10SM CLR 20/07 A3029 RMK AO2 T02000068
KPMU 181555Z AUTO 18003KT 10SM CLR 19/07 A3029 RMK AO2 T01910072
KPMU 181535Z AUTO 15006KT 10SM CLR 19/08 A3029 RMK AO2 T01850078
KPMU 181515Z AUTO 15004KT 10SM CLR 18/09 A3029 RMK AO2 T01760085
KPMU 181455Z AUTO 15006KT 10SM CLR 16/09 A3029 RMK AO2 T01620089
KPMU 181435Z AUTO 15004KT 10SM CLR 15/10 A3029 RMK AO2 T01500097
KPMU 181415Z AUTO 00000KT 10SM CLR 12/11 A3029 RMK AO2 T01240111
KPMU 181355Z AUTO 00000KT 10SM CLR 11/10 A3029 RMK AO2 T01060100
KPMU 181335Z AUTO 00000KT 10SM CLR 09/08 A3028 RMK AO2 T00900083
KPMU 181315Z AUTO 00000KT 10SM CLR 08/07 A3028 RMK AO2 T00750068
KPMU 181255Z AUTO 00000KT 7SM CLR 06/05 A3027 RMK AO2 T00570051
KPMU 181235Z AUTO 00000KT 5SM BR CLR 05/04 A3027 RMK AO2 T00460041
KPMU 181215Z AUTO 00000KT 10SM CLR 05/04 A3027 RMK AO2 T00450039
KPMU 181155Z AUTO 00000KT 7SM CLR 05/04 A3027 RMK AO2 T00490043 10074 20041
KPMU 181135Z AUTO 00000KT 10SM CLR 05/05 A3026 RMK AO2 T00500045
KPMU 181115Z AUTO 00000KT 10SM CLR 05/04 A3026 RMK AO2 T00470041
KPMU 181055Z AUTO 00000KT 7SM CLR 05/04 A3026 RMK AO2 T00450038
KPMU 181035Z AUTO 00000KT 7SM CLR 06/05 A3025 RMK AO2 T00550049
KPMU 181015Z AUTO 00000KT 7SM CLR 05/05 A3024 RMK AO2 T00500045
KPMU 180955Z AUTO 00000KT 5SM BR CLR 05/04 A3024 RMK AO2 T00460040
KPMU 180935Z AUTO 00000KT 2SM BR CLR 05/05 A3024 RMK AO2 VIS 1/2V5 T00510045
KPMU 180915Z AUTO 00000KT 10SM CLR 06/05 A3023 RMK AO2 T00580051
KPMU 180855Z AUTO 00000KT 7SM CLR 05/05 A3024 RMK AO2 T00530046
KPMU 180835Z AUTO 00000KT 7SM CLR 06/05 A3024 RMK AO2 T00570050
KPMU 180815Z AUTO 00000KT 5SM BR CLR 06/05 A3024 RMK AO2 T00550048